M I D A S
Marine Information and Data Acquisition System
Tripno 1423 of the Zeeleeuw from 2008-02-11 09:12:56 to 2008-02-11 16:50:57
Back to CruiseResearch ActivitiesStationsMapUnderway DataData graphs

EquipmentUnitsComment
TimeDGPSUTC
LatitudeDGPSDM.mWGS84
LongitudeDGPSDM.mWGS84
TemperatureSBE03/SBE38deg celciusITS90
ConductivitySBE21S/mITS90
SalinitySBE21 Practical Salinity Units
ChlorophylAChelsea fluorimeterµg/lCalibrated in Aceton
Missing or incorrect values are displayed as -999
Sea surface data collected by the RV Zeeleeuw from 2008-02-11 09:13:46 to 2008-02-11 20:30:56
Time Latitude Longitude Temperature Conductivity Salinity ChlorophylA
2008-02-11 09:14:50 51°13.675 2°55.916 -999 0.01185 0.062217 -1.801521
2008-02-11 09:15:51 51°13.691 2°55.852 -999 0.011748 0.061734 -1.801521
2008-02-11 09:16:51 51°13.698 2°55.789 -999 0.01185 0.062234 -1.801521
2008-02-11 09:17:51 51°13.701 2°55.755 -999 0.012056 0.06323 -1.801521
2008-02-11 09:18:51 51°13.699 2°55.742 -999 0.011748 0.061757 -1.801521
2008-02-11 09:19:08 51°13.7 2°55.739 -999 0.012674 0.06621 -1.801521
2008-02-11 09:20:51 51°13.806 2°55.657 -999 0.011233 0.059305 -1.801521
2008-02-11 09:21:50 51°13.889 2°55.599 -999 0.011542 0.060793 -1.801521
2008-02-11 09:22:50 51°13.97 2°55.54 -999 0.011542 0.0608 -1.801521
2008-02-11 09:23:50 51°14.055 2°55.479 -999 0.011336 0.059824 -1.801521
2008-02-11 09:24:51 51°14.143 2°55.407 -999 0.011542 0.060817 -1.801521
2008-02-11 09:25:51 51°14.229 2°55.306 -999 0.011542 0.060826 -1.801521
2008-02-11 09:26:50 51°14.3 2°55.179 -999 0.011439 0.060337 -1.801521
2008-02-11 09:27:51 51°14.377 2°55.006 -999 0.011542 0.060843 -1.801521
2008-02-11 09:28:50 51°14.418 2°54.745 -999 0.011233 0.05937 -1.801521
2008-02-11 09:29:51 51°14.405 2°54.442 -999 0.011439 0.060367 -1.801521
2008-02-11 09:30:50 51°14.319 2°54.174 -999 0.011027 0.058396 -1.801521
2008-02-11 09:31:50 51°14.231 2°53.897 -999 0.010616 0.056442 -1.801521
2008-02-11 09:32:50 51°14.15 2°53.608 -999 0.010718 0.056945 -1.801521
2008-02-11 09:33:50 51°14.063 2°53.301 -999 0.010616 0.056459 -1.801521
2008-02-11 09:34:50 51°13.959 2°52.991 -999 0.011027 0.05844 -1.801521
2008-02-11 09:35:50 51°13.848 2°52.73 -999 0.010821 0.057468 -1.801521
2008-02-11 09:36:50 51°13.779 2°52.455 -999 0.061966 0.321098 -1.697049
2008-02-11 09:37:50 51°13.706 2°52.213 -999 3.453273 31.603641 2.272893
2008-02-11 09:38:50 51°13.601 2°52.013 -999 3.39434 31.607699 2.063949
2008-02-11 09:39:50 51°13.491 2°51.819 -999 3.389266 31.660694 2.063949
2008-02-11 09:40:50 51°13.382 2°51.623 -999 3.396413 31.776346 2.098773
2008-02-11 09:41:50 51°13.274 2°51.431 -999 3.399728 31.836492 2.307717
2008-02-11 09:42:50 51°13.247 2°51.269 -999 3.401489 31.85212 2.516661
2008-02-11 09:43:50 51°13.302 2°51.204 -999 3.401282 31.850857 2.342541
2008-02-11 09:44:50 51°13.358 2°51.276 -999 3.402732 31.879266 2.168421
2008-02-11 09:45:50 51°13.423 2°51.381 -999 3.399625 31.867428 2.029124
2008-02-11 09:46:50 51°13.455 2°51.442 -999 3.40035 31.894568 1.924652
2008-02-11 09:47:50 51°13.479 2°51.47 -999 3.398486 31.887644 1.750532
2008-02-11 09:48:50 51°13.495 2°51.485 -999 3.399211 31.901436 1.576412
2008-02-11 09:49:50 51°13.497 2°51.488 -999 3.397243 31.888972 1.506764
2008-02-11 09:50:51 51°13.496 2°51.481 -999 3.396414 31.883018 1.437116
2008-02-11 09:51:50 51°13.494 2°51.47 -999 3.394136 31.864636 1.402292
2008-02-11 09:52:50 51°13.49 2°51.454 -999 3.395586 31.87974 1.367467
2008-02-11 09:53:50 51°13.486 2°51.435 -999 3.396104 31.887811 1.367467
2008-02-11 09:54:50 51°13.481 2°51.414 -999 3.395068 31.878806 1.262995
2008-02-11 09:55:50 51°13.475 2°51.39 -999 3.398693 31.91836 1.228171
2008-02-11 09:56:50 51°13.469 2°51.365 -999 3.397761 31.910434 1.193347
2008-02-11 09:57:50 51°13.462 2°51.338 -999 3.395586 31.889555 1.123699
2008-02-11 09:58:50 51°13.456 2°51.31 -999 3.395275 31.888996 1.088875
2008-02-11 09:59:50 51°13.451 2°51.286 -999 3.399108 31.919997 1.576412
2008-02-11 10:00:50 51°13.466 2°51.336 -999 3.399418 31.899132 1.785356
2008-02-11 10:01:50 51°13.5 2°51.459 -999 3.406358 31.961563 1.82018
2008-02-11 10:02:50 51°13.521 2°51.513 -999 3.409051 31.993181 1.506764
2008-02-11 10:03:50 51°13.518 2°51.532 -999 3.410398 32.005414 1.332643
2008-02-11 10:04:51 51°13.512 2°51.54 -999 3.405633 31.955801 1.367467
2008-02-11 10:05:50 51°13.505 2°51.538 -999 3.408326 31.98563 1.262995
2008-02-11 10:06:51 51°13.497 2°51.529 -999 3.395482 31.85994 1.088875
2008-02-11 10:07:50 51°13.49 2°51.515 -999 3.384192 31.7531 1.123699
2008-02-11 10:08:50 51°13.482 2°51.497 -999 3.390096 31.816335 1.193347
2008-02-11 10:09:50 51°13.475 2°51.475 -999 3.385539 31.771558 1.297819
2008-02-11 10:10:50 51°13.483 2°51.494 -999 3.388542 31.804609 1.332643
2008-02-11 10:11:50 51°13.543 2°51.664 -999 3.393514 31.852816 1.506764
2008-02-11 10:12:50 51°13.632 2°51.907 -999 3.3931 31.84672 1.924652
2008-02-11 10:13:50 51°13.724 2°52.159 -999 3.398279 31.89619 1.889828
2008-02-11 10:14:50 51°13.818 2°52.412 -999 3.389267 31.811268 1.785356
2008-02-11 10:15:50 51°13.908 2°52.67 -999 3.396725 31.890716 1.855004
2008-02-11 10:16:50 51°14 2°52.927 -999 3.395689 31.883495 1.855004
2008-02-11 10:17:50 51°14.113 2°53.164 -999 3.385435 31.796278 1.785356
2008-02-11 10:18:50 51°14.222 2°53.409 -999 3.394654 31.886983 2.029124
2008-02-11 10:19:50 51°14.332 2°53.653 -999 3.395275 31.900604 2.307717
2008-02-11 10:20:50 51°14.477 2°53.843 -999 3.393515 31.885822 1.855004
2008-02-11 10:21:50 51°14.662 2°53.937 -999 3.392479 31.868778 1.680884
2008-02-11 10:22:50 51°14.853 2°54.003 -999 3.407394 32.005453 2.203245
2008-02-11 10:23:50 51°15.044 2°54.053 -999 3.420756 32.134868 2.481837
2008-02-11 10:24:50 51°15.235 2°54.08 -999 3.42086 32.15304 2.655957
2008-02-11 10:25:50 51°15.425 2°54.132 -999 3.416199 32.140411 3.247966
2008-02-11 10:26:50 51°15.605 2°54.238 -999 3.410917 32.151039 3.247966
2008-02-11 10:27:50 51°15.782 2°54.348 -999 3.41475 32.217371 2.377365
2008-02-11 10:28:50 51°15.956 2°54.473 -999 3.415683 32.238913 2.168421
2008-02-11 10:29:50 51°16.102 2°54.662 -999 3.423555 32.322297 2.272893
2008-02-11 10:30:50 51°16.223 2°54.895 -999 3.426663 32.360323 2.307717
2008-02-11 10:31:50 51°16.322 2°55.085 -999 3.427699 32.38211 2.203245
2008-02-11 10:32:50 51°16.353 2°55.155 -999 3.427492 32.388139 2.029124
2008-02-11 10:33:50 51°16.372 2°55.161 -999 3.425109 32.356778 1.611236
2008-02-11 10:34:50 51°16.384 2°55.159 -999 3.427077 32.376504 1.541588
2008-02-11 10:35:50 51°16.392 2°55.155 -999 3.428424 32.394271 1.889828
2008-02-11 10:36:51 51°16.393 2°55.15 -999 3.425213 32.359685 1.855004
2008-02-11 10:37:51 51°16.391 2°55.144 -999 3.424177 32.345182 1.750532
2008-02-11 10:38:51 51°16.387 2°55.136 -999 3.428631 32.385508 1.64606
2008-02-11 10:39:50 51°16.381 2°55.126 -999 3.42801 32.372617 1.541588
2008-02-11 10:40:51 51°16.373 2°55.115 -999 3.429356 32.387644 1.576412
2008-02-11 10:41:51 51°16.364 2°55.101 -999 3.427802 32.374088 1.750532
2008-02-11 10:42:51 51°16.354 2°55.087 -999 3.426041 32.354718 1.715708
2008-02-11 10:43:51 51°16.344 2°55.071 -999 3.430599 32.398853 1.680884
2008-02-11 10:44:51 51°16.335 2°55.056 -999 3.429045 32.381654 1.680884
2008-02-11 10:45:50 51°16.325 2°55.039 -999 3.431428 32.405717 1.715708
2008-02-11 10:46:50 51°16.315 2°55.02 -999 3.42946 32.391463 2.029124
2008-02-11 10:47:50 51°16.304 2°55.002 -999 3.424798 32.33987 1.785356
2008-02-11 10:48:50 51°16.292 2°54.983 -999 3.425005 32.337494 1.785356
2008-02-11 10:49:50 51°16.281 2°54.963 -999 3.42977 32.38288 1.680884
2008-02-11 10:50:51 51°16.269 2°54.944 -999 3.431635 32.407889 1.889828
2008-02-11 10:51:51 51°16.257 2°54.924 -999 3.427906 32.36789 1.715708
2008-02-11 10:52:51 51°16.246 2°54.905 -999 3.428527 32.373494 1.611236
2008-02-11 10:53:51 51°16.233 2°54.884 -999 3.430288 32.392862 1.82018
2008-02-11 10:54:51 51°16.221 2°54.863 -999 3.427906 32.375174 2.098773
2008-02-11 10:55:50 51°16.209 2°54.843 -999 3.430392 32.40306 2.168421
2008-02-11 10:56:50 51°16.197 2°54.822 -999 3.431532 32.414096 2.203245
2008-02-11 10:57:50 51°16.183 2°54.802 -999 3.428631 32.378222 2.098773
2008-02-11 10:58:50 51°16.17 2°54.782 -999 3.426974 32.365401 2.238069
2008-02-11 10:59:50 51°16.157 2°54.762 -999 3.429874 32.388519 2.168421
2008-02-11 11:00:50 51°16.145 2°54.742 -999 3.430496 32.396856 2.238069
2008-02-11 11:01:50 51°16.131 2°54.722 -999 3.425109 32.341308 2.133597
2008-02-11 11:02:50 51°16.118 2°54.702 -999 3.426352 32.349786 1.959476
2008-02-11 11:03:50 51°16.105 2°54.682 -999 3.425109 32.335851 2.029124
2008-02-11 11:04:50 51°16.091 2°54.662 -999 3.429045 32.386208 2.342541
2008-02-11 11:05:50 51°16.078 2°54.641 -999 3.423141 32.320682 2.168421
2008-02-11 11:06:50 51°16.063 2°54.621 -999 3.426352 32.355245 2.377365
2008-02-11 11:07:51 51°16.049 2°54.601 -999 3.425938 32.351812 2.063949
2008-02-11 11:08:51 51°16.035 2°54.58 -999 3.426974 32.366311 2.168421
2008-02-11 11:09:50 51°16.021 2°54.56 -999 3.429149 32.389116 2.063949
2008-02-11 11:10:50 51°16.008 2°54.539 -999 3.421173 32.305509 2.238069
2008-02-11 11:11:50 51°15.994 2°54.519 -999 3.425213 32.346942 2.238069
2008-02-11 11:12:50 51°15.98 2°54.498 -999 3.423763 32.331742 2.238069
2008-02-11 11:13:50 51°15.967 2°54.477 -999 3.430703 32.401761 2.029124
2008-02-11 11:14:50 51°15.936 2°54.463 -999 3.428113 32.369151 1.924652
2008-02-11 11:15:51 51°15.826 2°54.342 -999 3.425627 32.334914 2.203245
2008-02-11 11:16:50 51°15.875 2°54.126 -999 3.427181 32.350284 1.9943
2008-02-11 11:17:51 51°16.014 2°54.006 -999 3.43091 32.392089 2.203245
2008-02-11 11:18:50 51°16.122 2°54.125 -999 3.441268 32.433195 1.889828
2008-02-11 11:19:50 51°16.201 2°54.192 -999 3.45432 32.498678 2.272893
2008-02-11 11:20:50 51°16.233 2°54.235 -999 3.459188 32.53588 2.307717
2008-02-11 11:21:51 51°16.239 2°54.266 -999 3.458877 32.519895 1.959476
2008-02-11 11:22:51 51°16.23 2°54.273 -999 3.461157 32.540957 1.9943
2008-02-11 11:23:51 51°16.22 2°54.274 -999 3.460431 32.538847 1.9943
2008-02-11 11:24:50 51°16.209 2°54.271 -999 3.456495 32.496841 2.238069
2008-02-11 11:25:51 51°16.196 2°54.266 -999 3.459188 32.529508 2.342541
2008-02-11 11:26:51 51°16.184 2°54.257 -999 3.460949 32.546987 2.168421
2008-02-11 11:27:50 51°16.172 2°54.246 -999 3.460224 32.533954 2.098773
2008-02-11 11:28:50 51°16.16 2°54.234 -999 3.456391 32.501215 2.377365
2008-02-11 11:29:50 51°16.148 2°54.221 -999 3.460017 32.534521 2.098773
2008-02-11 11:30:50 51°16.136 2°54.206 -999 3.454423 32.47249 2.238069
2008-02-11 11:31:50 51°16.124 2°54.19 -999 3.458153 32.527792 2.725606
2008-02-11 11:32:50 51°16.113 2°54.173 -999 3.459603 32.550227 2.725606
2008-02-11 11:33:50 51°16.1 2°54.155 -999 3.459603 32.548405 2.725606
2008-02-11 11:34:50 51°16.088 2°54.141 -999 3.461467 32.546022 2.272893
2008-02-11 11:35:50 51°16.143 2°54.19 -999 3.462918 32.548418 2.481837
2008-02-11 11:36:50 51°16.267 2°54.235 -999 3.463125 32.553311 2.133597
2008-02-11 11:37:50 51°16.298 2°54.312 -999 3.462192 32.539031 1.576412
2008-02-11 11:38:50 51°16.284 2°54.329 -999 3.462089 32.534311 1.47194
2008-02-11 11:39:50 51°16.266 2°54.328 -999 3.462089 32.53704 1.576412
2008-02-11 11:40:50 51°16.247 2°54.321 -999 3.462917 32.542959 1.611236
2008-02-11 11:41:50 51°16.226 2°54.311 -999 3.46271 32.548076 1.924652
2008-02-11 11:42:50 51°16.206 2°54.3 -999 3.464782 32.549679 1.715708
2008-02-11 11:43:50 51°16.186 2°54.287 -999 3.466543 32.558044 1.785356
2008-02-11 11:44:50 51°16.166 2°54.273 -999 3.466129 32.563728 1.9943
2008-02-11 11:45:50 51°16.148 2°54.261 -999 3.465611 32.566515 2.203245
2008-02-11 11:46:51 51°16.129 2°54.248 -999 3.463643 32.564181 2.377365
2008-02-11 11:47:51 51°16.112 2°54.237 -999 3.463125 32.560595 2.272893
2008-02-11 11:48:50 51°16.095 2°54.225 -999 3.462607 32.55974 2.481837
2008-02-11 11:49:51 51°16.078 2°54.212 -999 3.462089 32.557064 2.447013
2008-02-11 11:50:51 51°16.058 2°54.266 -999 3.4624 32.553935 2.342541
2008-02-11 11:51:50 51°16.138 2°54.277 -999 3.459914 32.546185 2.551485
2008-02-11 11:52:50 51°16.264 2°54.275 -999 3.4624 32.549383 2.168421
2008-02-11 11:53:50 51°16.287 2°54.315 -999 3.464264 32.545185 1.506764
2008-02-11 11:54:50 51°16.279 2°54.324 -999 3.464471 32.544618 1.855004
2008-02-11 11:55:50 51°16.267 2°54.326 -999 3.464575 32.54388 1.611236
2008-02-11 11:56:50 51°16.254 2°54.326 -999 3.465196 32.547635 1.750532
2008-02-11 11:57:50 51°16.241 2°54.323 -999 3.464161 32.550472 2.063949
2008-02-11 11:58:50 51°16.228 2°54.317 -999 3.465093 32.552012 2.029124
2008-02-11 11:59:50 51°16.215 2°54.323 -999 3.464886 32.554399 2.203245
2008-02-11 12:00:50 51°16.246 2°54.43 -999 3.465818 32.556847 2.063949
2008-02-11 12:01:50 51°16.324 2°54.678 -999 3.466647 32.564582 2.272893
2008-02-11 12:02:50 51°16.401 2°54.965 -999 3.46644 32.56697 2.272893
2008-02-11 12:03:50 51°16.484 2°55.248 -999 3.45722 32.514415 2.342541
2008-02-11 12:04:50 51°16.566 2°55.532 -999 3.447483 32.461803 2.307717
2008-02-11 12:05:50 51°16.645 2°55.816 -999 3.442097 32.430947 2.238069
2008-02-11 12:06:50 51°16.727 2°56.101 -999 3.439611 32.424041 2.063949
2008-02-11 12:07:50 51°16.804 2°56.389 -999 3.439921 32.431844 1.924652
2008-02-11 12:08:50 51°16.884 2°56.675 -999 3.435674 32.403768 1.9943
2008-02-11 12:09:50 51°16.967 2°56.962 -999 3.432153 32.379627 1.889828
2008-02-11 12:10:50 51°17.053 2°57.246 -999 3.429667 32.367233 1.715708
2008-02-11 12:11:50 51°17.14 2°57.53 -999 3.427699 32.348435 1.750532
2008-02-11 12:12:50 51°17.225 2°57.813 -999 3.423762 32.326286 1.715708
2008-02-11 12:13:50 51°17.309 2°58.094 -999 3.41558 32.277764 1.785356
2008-02-11 12:14:50 51°17.392 2°58.377 -999 3.409572 32.24018 1.82018
2008-02-11 12:15:50 51°17.461 2°58.675 -999 3.404807 32.20743 1.889828
2008-02-11 12:16:50 51°17.527 2°58.972 -999 3.397246 32.1589 1.924652
2008-02-11 12:17:50 51°17.594 2°59.27 -999 3.392275 32.132074 2.168421
2008-02-11 12:18:50 51°17.669 2°59.56 -999 3.383471 32.086689 1.82018
2008-02-11 12:19:50 51°17.756 2°59.841 -999 3.3582 31.911215 1.506764
2008-02-11 12:20:50 51°17.852 3°0.111 -999 3.326095 31.671914 1.541588
2008-02-11 12:21:50 51°17.955 3°0.376 -999 3.302483 31.472031 1.959476
2008-02-11 12:22:50 51°18.057 3°0.642 -999 3.2826 31.284409 2.203245
2008-02-11 12:23:50 51°18.159 3°0.907 -999 3.260129 31.049896 2.447013
2008-02-11 12:24:50 51°18.261 3°1.173 -999 3.245011 30.889576 2.551485
2008-02-11 12:25:50 51°18.363 3°1.439 -999 3.232482 30.75753 2.551485
2008-02-11 12:26:50 51°18.467 3°1.702 -999 3.226166 30.688367 2.621133
2008-02-11 12:27:50 51°18.59 3°1.943 -999 3.222645 30.639064 2.690782
2008-02-11 12:28:50 51°18.714 3°2.186 -999 3.222127 30.626633 2.93455
2008-02-11 12:29:50 51°18.837 3°2.429 -999 3.223059 30.632949 2.725606
2008-02-11 12:30:50 51°18.949 3°2.684 -999 3.228857 30.651189 2.621133
2008-02-11 12:31:50 51°19.058 3°2.944 -999 3.232378 30.683831 2.481837
2008-02-11 12:32:50 51°19.166 3°3.206 -999 3.231756 30.688648 2.412189
2008-02-11 12:33:50 51°19.275 3°3.468 -999 3.229893 30.68302 2.377365
2008-02-11 12:34:50 51°19.384 3°3.73 -999 3.229064 30.674307 2.377365
2008-02-11 12:35:50 51°19.489 3°3.998 -999 3.229582 30.673641 2.516661
2008-02-11 12:36:50 51°19.598 3°4.261 -999 3.230307 30.662065 2.272893
2008-02-11 12:37:50 51°19.706 3°4.526 -999 3.228443 30.656428 2.238069
2008-02-11 12:38:50 51°19.815 3°4.788 -999 3.224301 30.611145 2.063949
2008-02-11 12:39:50 51°19.927 3°5.047 -999 3.217157 30.563018 2.098773
2008-02-11 12:40:50 51°20.045 3°5.298 -999 3.209081 30.495464 2.168421
2008-02-11 12:41:50 51°20.153 3°5.56 -999 3.201627 30.440477 2.098773
2008-02-11 12:42:50 51°20.26 3°5.824 -999 3.197175 30.389296 2.098773
2008-02-11 12:43:50 51°20.368 3°6.087 -999 3.192722 30.347655 2.133597
2008-02-11 12:44:50 51°20.474 3°6.353 -999 3.190134 30.324751 2.133597
2008-02-11 12:45:50 51°20.579 3°6.622 -999 3.187856 30.311164 2.203245
2008-02-11 12:46:50 51°20.684 3°6.892 -999 3.188685 30.319014 2.342541
2008-02-11 12:47:50 51°20.79 3°7.162 -999 3.194172 30.361173 2.342541
2008-02-11 12:48:50 51°20.896 3°7.432 -999 3.200074 30.437152 2.203245
2008-02-11 12:49:50 51°20.999 3°7.709 -999 3.203387 30.492043 2.168421
2008-02-11 12:50:50 51°21.104 3°7.984 -999 3.205147 30.506234 2.098773
2008-02-11 12:51:50 51°21.21 3°8.261 -999 3.204733 30.50013 2.063949
2008-02-11 12:52:50 51°21.318 3°8.54 -999 3.202559 30.480705 2.063949
2008-02-11 12:53:50 51°21.429 3°8.817 -999 3.2067 30.5165 1.9943
2008-02-11 12:54:50 51°21.544 3°9.095 -999 3.193758 30.401027 2.098773
2008-02-11 12:55:50 51°21.658 3°9.378 -999 3.17533 30.23804 2.063949
2008-02-11 12:56:50 51°21.775 3°9.661 -999 3.172534 30.20686 2.029124
2008-02-11 12:57:50 51°21.893 3°9.947 -999 3.169635 30.18495 2.133597
2008-02-11 12:58:50 51°22.013 3°10.235 -999 3.165701 30.13144 2.029124
2008-02-11 12:59:50 51°22.137 3°10.518 -999 3.166115 30.131495 1.9943
2008-02-11 13:00:50 51°22.259 3°10.807 -999 3.158972 30.053715 1.9943
2008-02-11 13:01:50 51°22.366 3°11.068 -999 3.156797 30.019684 1.889828
2008-02-11 13:02:50 51°22.436 3°11.235 -999 3.15338 29.901766 1.541588
2008-02-11 13:03:50 51°22.485 3°11.327 -999 3.152033 29.802776 1.262995
2008-02-11 13:04:50 51°22.511 3°11.368 -999 3.15638 29.745212 0.810283
2008-02-11 13:05:50 51°22.511 3°11.376 -999 3.145926 29.785423 1.680884
2008-02-11 13:06:50 51°22.511 3°11.384 -999 3.139301 29.77618 1.611236
2008-02-11 13:07:50 51°22.51 3°11.393 -999 3.137541 29.782334 1.680884
2008-02-11 13:08:50 51°22.509 3°11.402 -999 3.140336 29.766679 1.541588
2008-02-11 13:09:50 51°22.507 3°11.412 -999 3.140336 29.771767 1.576412
2008-02-11 13:10:50 51°22.505 3°11.421 -999 3.139404 29.780661 1.576412
2008-02-11 13:11:50 51°22.502 3°11.43 -999 3.13868 29.787492 1.680884
2008-02-11 13:12:50 51°22.5 3°11.438 -999 3.137024 29.790497 1.715708
2008-02-11 13:13:50 51°22.498 3°11.446 -999 3.13692 29.799614 1.785356
2008-02-11 13:14:50 51°22.498 3°11.455 -999 3.136403 29.79843 1.82018
2008-02-11 13:15:50 51°22.496 3°11.491 -999 3.135574 29.786326 1.889828
2008-02-11 13:16:50 51°22.513 3°11.613 -999 3.141785 29.760684 1.576412
2008-02-11 13:17:50 51°22.543 3°11.884 -999 3.143648 29.753111 1.576412
2008-02-11 13:18:50 51°22.574 3°12.195 -999 3.134228 29.756047 1.750532
2008-02-11 13:19:50 51°22.603 3°12.51 -999 3.131847 29.662498 1.437116
2008-02-11 13:20:50 51°22.623 3°12.825 -999 3.116319 29.51672 1.680884
2008-02-11 13:21:50 51°22.619 3°13.074 -999 3.09955 29.443473 1.750532
2008-02-11 13:22:50 51°22.592 3°13.2 -999 3.093546 29.377917 1.506764
2008-02-11 13:23:50 51°22.59 3°13.234 -999 3.097996 29.360041 1.611236
2008-02-11 13:24:50 51°22.589 3°13.263 -999 3.115078 29.615898 1.82018
2008-02-11 13:25:50 51°22.586 3°13.294 -999 3.118805 29.665254 1.889828
2008-02-11 13:26:50 51°22.549 3°13.29 -999 3.118494 29.64503 1.785356
2008-02-11 13:27:51 51°22.563 3°13.188 -999 3.098618 29.403438 1.715708
2008-02-11 13:28:51 51°22.589 3°13.153 -999 3.095823 29.379994 1.64606
2008-02-11 13:29:50 51°22.605 3°13.162 -999 3.095927 29.370177 1.506764
2008-02-11 13:30:50 51°22.617 3°13.18 -999 3.096237 29.377626 1.47194
2008-02-11 13:31:50 51°22.626 3°13.205 -999 3.09603 29.381327 1.47194
2008-02-11 13:32:50 51°22.631 3°13.231 -999 3.096858 29.391693 1.47194
2008-02-11 13:33:50 51°22.636 3°13.26 -999 3.09986 29.424869 1.506764
2008-02-11 13:34:50 51°22.64 3°13.29 -999 3.103069 29.450134 1.541588
2008-02-11 13:35:50 51°22.642 3°13.321 -999 3.103587 29.437074 1.402292
2008-02-11 13:36:50 51°22.643 3°13.355 -999 3.103172 29.415947 1.437116
2008-02-11 13:37:50 51°22.644 3°13.39 -999 3.10193 29.371941 1.332643
2008-02-11 13:38:50 51°22.644 3°13.427 -999 3.105034 29.335098 1.297819
2008-02-11 13:39:50 51°22.643 3°13.465 -999 3.107933 29.374553 1.367467
2008-02-11 13:40:50 51°22.641 3°13.505 -999 3.105863 29.417309 1.47194
2008-02-11 13:41:50 51°22.639 3°13.545 -999 3.10576 29.417902 1.47194
2008-02-11 13:42:50 51°22.65 3°13.536 -999 3.10545 29.463338 1.611236
2008-02-11 13:43:51 51°22.628 3°13.406 -999 3.100998 29.366372 1.402292
2008-02-11 13:44:50 51°22.598 3°13.212 -999 3.11135 29.460496 1.611236
2008-02-11 13:45:50 51°22.608 3°13.161 -999 3.129775 29.585235 1.297819
2008-02-11 13:46:50 51°22.624 3°13.19 -999 3.140334 29.627463 1.193347
2008-02-11 13:47:50 51°22.636 3°13.228 -999 3.138781 29.631417 1.158523
2008-02-11 13:48:50 51°22.646 3°13.272 -999 3.138367 29.634659 1.228171
2008-02-11 13:49:50 51°22.653 3°13.317 -999 3.138367 29.637181 1.228171
2008-02-11 13:50:50 51°22.659 3°13.365 -999 3.138471 29.628175 1.228171
2008-02-11 13:51:50 51°22.663 3°13.415 -999 3.13816 29.614014 1.158523
2008-02-11 13:52:51 51°22.666 3°13.469 -999 3.137953 29.612692 1.158523
2008-02-11 13:53:50 51°22.669 3°13.522 -999 3.139092 29.610305 1.228171
2008-02-11 13:54:50 51°22.67 3°13.577 -999 3.139506 29.603719 1.193347
2008-02-11 13:55:50 51°22.688 3°13.588 -999 3.137332 29.613767 1.332643
2008-02-11 13:56:50 51°22.676 3°13.456 -999 3.137332 29.578536 1.262995
2008-02-11 13:57:50 51°22.643 3°13.213 -999 3.136712 29.714311 1.680884
2008-02-11 13:58:50 51°22.605 3°12.947 -999 3.134849 29.741354 1.715708
2008-02-11 13:59:50 51°22.568 3°12.68 -999 3.140232 29.766442 1.715708
2008-02-11 14:00:50 51°22.533 3°12.412 -999 3.142717 29.81287 1.750532
2008-02-11 14:01:50 51°22.499 3°12.145 -999 3.147479 29.861989 1.715708
2008-02-11 14:02:50 51°22.466 3°11.879 -999 3.161351 29.949573 1.715708
2008-02-11 14:03:50 51°22.433 3°11.613 -999 3.170357 29.953675 1.64606
2008-02-11 14:04:50 51°22.384 3°11.355 -999 3.183195 30.024053 1.437116
2008-02-11 14:05:50 51°22.336 3°11.101 -999 3.190339 30.149816 1.576412
2008-02-11 14:06:50 51°22.291 3°10.846 -999 3.19241 30.180884 1.506764
2008-02-11 14:07:50 51°22.241 3°10.588 -999 3.197586 30.174303 1.437116
2008-02-11 14:08:51 51°22.178 3°10.332 -999 3.20825 30.236933 1.437116
2008-02-11 14:09:50 51°22.11 3°10.093 -999 3.211253 30.293935 1.402292
2008-02-11 14:10:51 51°22.033 3°9.853 -999 3.21322 30.332491 1.47194
2008-02-11 14:11:50 51°21.951 3°9.627 -999 3.215912 30.363201 1.437116
2008-02-11 14:12:51 51°21.856 3°9.404 -999 3.222643 30.447339 1.402292
2008-02-11 14:13:50 51°21.764 3°9.19 -999 3.227511 30.597876 1.82018
2008-02-11 14:14:50 51°21.671 3°8.972 -999 3.234344 30.667877 1.750532
2008-02-11 14:15:51 51°21.577 3°8.75 -999 3.242421 30.739592 1.855004
2008-02-11 14:16:50 51°21.485 3°8.533 -999 3.249048 30.845089 2.342541
2008-02-11 14:17:50 51°21.395 3°8.309 -999 3.242007 30.786823 2.655957
2008-02-11 14:18:50 51°21.3 3°8.086 -999 3.230307 30.684756 3.213142
2008-02-11 14:19:50 51°21.207 3°7.86 -999 3.221506 30.602658 3.700679
2008-02-11 14:20:50 51°21.114 3°7.635 -999 3.214672 30.540363 4.118568
2008-02-11 14:21:50 51°21.022 3°7.411 -999 3.211877 30.520525 4.536456
2008-02-11 14:22:51 51°20.923 3°7.189 -999 3.209909 30.492882 4.606104
2008-02-11 14:23:50 51°20.827 3°6.97 -999 3.207424 30.470224 4.57128
2008-02-11 14:24:51 51°20.727 3°6.746 -999 3.210427 30.488774 4.431984
2008-02-11 14:25:50 51°20.63 3°6.53 -999 3.215397 30.524513 4.257864
2008-02-11 14:26:51 51°20.529 3°6.309 -999 3.221298 30.564801 4.640929
2008-02-11 14:27:50 51°20.431 3°6.093 -999 3.226165 30.607224 4.710577
2008-02-11 14:28:51 51°20.33 3°5.869 -999 3.231963 30.645486 4.884697
2008-02-11 14:29:50 51°20.232 3°5.651 -999 3.236726 30.70684 5.441882
2008-02-11 14:30:51 51°20.13 3°5.425 -999 3.239004 30.738634 4.745401
2008-02-11 14:31:51 51°20.029 3°5.205 -999 3.239315 30.747143 4.849873
2008-02-11 14:32:50 51°19.932 3°4.983 -999 3.238797 30.742576 5.441882
2008-02-11 14:33:51 51°19.83 3°4.751 -999 3.238176 30.734298 5.302586
2008-02-11 14:34:50 51°19.728 3°4.531 -999 3.237762 30.727324 5.058817
2008-02-11 14:35:50 51°19.626 3°4.308 -999 3.234345 30.707131 5.581178
2008-02-11 14:36:50 51°19.527 3°4.081 -999 3.231239 30.693684 5.720474
2008-02-11 14:37:50 51°19.424 3°3.856 -999 3.237451 30.757288 4.536456
2008-02-11 14:38:51 51°19.322 3°3.622 -999 3.248427 30.863125 3.839975
2008-02-11 14:39:50 51°19.224 3°3.395 -999 3.2593 30.97051 3.317614
2008-02-11 14:40:51 51°19.12 3°3.162 -999 3.268309 31.051217 2.969374
2008-02-11 14:41:50 51°19.02 3°2.934 -999 3.277214 31.132571 2.725606
2008-02-11 14:42:52 51°18.915 3°2.695 -999 3.287052 31.213067 2.516661
2008-02-11 14:43:50 51°18.816 3°2.472 -999 3.300099 31.301498 2.307717
2008-02-11 14:44:51 51°18.712 3°2.234 -999 3.315529 31.382761 2.098773
2008-02-11 14:45:51 51°18.607 3°2.004 -999 3.336966 31.550667 2.272893
2008-02-11 14:46:51 51°18.505 3°1.773 -999 3.348566 31.640131 2.377365
2008-02-11 14:47:51 51°18.4 3°1.544 -999 3.355608 31.698732 2.307717
2008-02-11 14:48:51 51°18.298 3°1.309 -999 3.362341 31.760312 2.307717
2008-02-11 14:49:51 51°18.194 3°1.075 -999 3.374148 31.866073 2.342541
2008-02-11 14:50:50 51°18.094 3°0.841 -999 3.387198 31.973101 2.307717
2008-02-11 14:51:51 51°17.988 3°0.601 -999 3.391341 31.99128 2.377365
2008-02-11 14:52:50 51°17.887 3°0.368 -999 3.400145 32.062699 2.516661
2008-02-11 14:53:50 51°17.782 3°0.135 -999 3.401595 32.074266 2.586309
2008-02-11 14:54:50 51°17.679 2°59.9 -999 3.404288 32.097934 2.725606
2008-02-11 14:55:50 51°17.583 2°59.657 -999 3.406981 32.110773 2.795254
2008-02-11 14:56:51 51°17.486 2°59.411 -999 3.412885 32.146348 2.690782
2008-02-11 14:57:50 51°17.393 2°59.173 -999 3.426973 32.270099 2.725606
2008-02-11 14:58:51 51°17.287 2°58.938 -999 3.430701 32.278302 2.621133
2008-02-11 14:59:50 51°17.187 2°58.706 -999 3.431944 32.265071 2.586309
2008-02-11 15:00:51 51°17.081 2°58.47 -999 3.429044 32.233002 2.655957
2008-02-11 15:01:50 51°16.979 2°58.241 -999 3.435984 32.272002 2.516661
2008-02-11 15:02:51 51°16.874 2°58.004 -999 3.438055 32.265636 2.551485
2008-02-11 15:03:51 51°16.773 2°57.765 -999 3.455459 32.456069 2.447013
2008-02-11 15:04:51 51°16.67 2°57.523 -999 3.455977 32.49507 2.516661
2008-02-11 15:05:51 51°16.566 2°57.282 -999 3.455252 32.494772 2.516661
2008-02-11 15:06:51 51°16.464 2°57.045 -999 3.452352 32.485395 2.516661
2008-02-11 15:07:51 51°16.362 2°56.801 -999 3.451834 32.480893 2.516661
2008-02-11 15:08:50 51°16.26 2°56.56 -999 3.453905 32.48162 2.481837
2008-02-11 15:09:51 51°16.153 2°56.312 -999 3.457323 32.485501 2.412189
2008-02-11 15:10:51 51°16.05 2°56.081 -999 3.45722 32.488962 2.412189
2008-02-11 15:11:50 51°15.954 2°55.89 -999 3.455252 32.492954 2.481837
2008-02-11 15:12:51 51°15.856 2°55.694 -999 3.452352 32.485395 2.551485
2008-02-11 15:13:50 51°15.757 2°55.511 -999 3.448933 32.466047 2.621133
2008-02-11 15:14:51 51°15.646 2°55.334 -999 3.445204 32.427985 2.830078
2008-02-11 15:15:50 51°15.519 2°55.173 -999 3.443132 32.387283 2.93455
2008-02-11 15:16:51 51°15.349 2°55.068 -999 0.085742 0.620886 -1.697049
2008-02-11 15:17:50 51°15.163 2°55.077 -999 2.211754 17.439328 -1.731873
2008-02-11 15:18:51 51°14.972 2°55.063 -999 0.349048 2.221271 -1.731873
2008-02-11 15:19:51 51°14.786 2°55.033 -999 0.200705 1.237818 -1.731873
2008-02-11 15:20:51 51°14.599 2°54.993 -999 0.152741 0.930726 -1.731873
2008-02-11 15:21:51 51°14.41 2°55.021 -999 0.133288 0.810065 -1.731873
2008-02-11 15:22:51 51°14.268 2°55.225 -999 0.122173 0.740789 -1.731873
2008-02-11 15:23:51 51°14.146 2°55.397 -999 0.115483 0.69965 -1.731873
2008-02-11 15:24:51 51°14.034 2°55.478 -999 0.11116 0.672507 -1.731873
2008-02-11 15:25:51 51°13.916 2°55.565 -999 0.107867 0.652087 -1.731873
2008-02-11 15:26:50 51°13.794 2°55.663 -999 0.105191 0.636163 -1.731873
2008-02-11 15:27:51 51°13.723 2°55.768 -999 0.103133 0.622334 -1.731873
2008-02-11 15:28:51 51°13.687 2°55.86 -999 0.101589 0.612625 -1.731873
2008-02-11 15:29:50 51°13.672 2°55.927 -999 0.100148 0.603825 -1.731873
2008-02-11 15:30:51 51°13.667 2°55.95 -999 0.099119 0.597281 -1.731873
2008-02-11 15:31:50 51°13.664 2°55.954 -999 0.098193 0.591284 -1.731873
2008-02-11 15:32:51 51°13.665 2°55.955 -999 0.097369 0.586508 -1.731873
2008-02-11 15:33:50 51°13.665 2°55.955 -999 0.096649 0.581654 -1.731873
2008-02-11 15:34:51 51°13.665 2°55.955 -999 0.096134 0.578455 -1.731873
2008-02-11 15:35:51 51°13.665 2°55.955 -999 0.095723 0.576129 -1.731873
2008-02-11 15:36:51 51°13.665 2°55.955 -999 0.095414 0.574055 -1.731873
2008-02-11 15:37:51 51°13.664 2°55.954 -999 0.095208 0.572563 -1.731873
2008-02-11 15:38:50 51°13.664 2°55.953 -999 0.095002 0.5714 -1.731873
2008-02-11 15:39:51 51°13.665 2°55.954 -999 0.094796 0.569571 -1.731873
2008-02-11 15:40:50 51°13.665 2°55.955 -999 0.094694 0.568852 -1.731873
2008-02-11 15:41:51 51°13.665 2°55.954 -999 0.094591 0.568096 -1.731873
2008-02-11 15:42:50 51°13.665 2°55.954 -999 0.094488 0.567315 -1.731873
2008-02-11 15:43:50 51°13.665 2°55.955 -999 0.094488 0.567065 -1.766697
2008-02-11 15:44:51 51°13.666 2°55.954 -999 0.094385 0.566335 -1.731873
2008-02-11 15:45:50 51°13.666 2°55.954 -999 0.094385 0.566148 -1.731873
2008-02-11 15:46:50 51°13.665 2°55.954 -999 0.094385 0.565986 -1.731873
2008-02-11 15:47:50 51°13.665 2°55.954 -999 0.094385 0.56534 -1.731873
2008-02-11 15:48:51 51°13.665 2°55.955 -999 0.094488 0.565659 -1.766697
2008-02-11 15:49:51 51°13.665 2°55.955 -999 0.094488 0.565721 -1.731873
2008-02-11 15:50:51 51°13.665 2°55.955 -999 0.094488 0.565473 -1.731873
2008-02-11 15:51:51 51°13.665 2°55.955 -999 0.094488 0.5653 -1.731873
2008-02-11 15:52:50 51°13.665 2°55.955 -999 0.094488 0.564941 -1.731873
2008-02-11 15:53:51 51°13.665 2°55.956 -999 0.094488 0.564669 -1.731873
2008-02-11 15:54:51 51°13.665 2°55.955 -999 0.094591 0.565198 -1.731873
2008-02-11 15:55:50 51°13.666 2°55.955 -999 0.094591 0.565037 -1.731873
2008-02-11 15:56:51 51°13.666 2°55.955 -999 0.094693 0.565318 -1.731873
2008-02-11 15:57:51 51°13.665 2°55.956 -999 0.094693 0.565133 -1.731873
2008-02-11 15:58:50 51°13.663 2°55.957 -999 0.094796 0.565637 -1.731873
2008-02-11 15:59:50 51°13.664 2°55.957 -999 0.094796 0.565575 -1.731873
2008-02-11 16:00:51 51°13.664 2°55.955 -999 0.094899 0.566103 -1.731873
2008-02-11 16:01:50 51°13.665 2°55.956 -999 0.094899 0.565917 -1.731873
2008-02-11 16:02:51 51°13.664 2°55.956 -999 0.095002 0.566359 -1.731873
2008-02-11 16:03:51 51°13.665 2°55.956 -999 0.095002 0.566235 -1.731873
2008-02-11 16:04:51 51°13.665 2°55.956 -999 0.095105 0.566725 -1.731873
2008-02-11 16:05:51 51°13.664 2°55.955 -999 0.095105 0.566602 -1.731873
2008-02-11 16:06:51 51°13.663 2°55.956 -999 0.095105 0.566466 -1.731873
2008-02-11 16:07:50 51°13.664 2°55.956 -999 0.095208 0.566956 -1.731873
2008-02-11 16:08:50 51°13.664 2°55.956 -999 0.095208 0.566808 -1.731873
2008-02-11 16:09:51 51°13.664 2°55.956 -999 0.095208 0.566697 -1.766697
2008-02-11 16:10:51 51°13.664 2°55.955 -999 0.095311 0.567223 -1.731873
2008-02-11 16:11:51 51°13.664 2°55.955 -999 0.095311 0.567087 -1.731873
2008-02-11 16:12:51 51°13.663 2°55.953 -999 0.095311 0.566915 -1.731873
2008-02-11 16:13:51 51°13.663 2°55.954 -999 0.095414 0.56733 -1.731873
2008-02-11 16:14:51 51°13.664 2°55.954 -999 0.09562 0.568406 -1.731873
2008-02-11 16:15:51 51°13.664 2°55.955 -999 0.095723 0.568907 -1.731873
2008-02-11 16:16:50 51°13.664 2°55.956 -999 0.095825 0.569346 -1.731873
2008-02-11 16:17:50 51°13.664 2°55.955 -999 0.095928 0.569846 -1.731873
2008-02-11 16:18:51 51°13.664 2°55.955 -999 0.095928 0.569673 -1.731873
2008-02-11 16:19:50 51°13.665 2°55.956 -999 0.095928 0.569438 -1.731873
2008-02-11 16:20:51 51°13.665 2°55.956 -999 0.095928 0.569253 -1.766697
2008-02-11 16:21:51 51°13.665 2°55.956 -999 0.096031 0.569691 -1.731873
2008-02-11 16:22:51 51°13.665 2°55.956 -999 0.096031 0.569518 -1.731873
2008-02-11 16:23:50 51°13.664 2°55.955 -999 0.096031 0.56937 -1.731873
2008-02-11 16:24:50 51°13.664 2°55.954 -999 0.096134 0.569857 -1.731873
2008-02-11 16:25:50 51°13.664 2°55.955 -999 0.096134 0.569697 -1.731873
2008-02-11 16:26:51 51°13.665 2°55.955 -999 0.096134 0.569499 -1.731873
2008-02-11 16:27:51 51°13.665 2°55.955 -999 0.096237 0.569961 -1.731873
2008-02-11 16:28:50 51°13.665 2°55.955 -999 0.096237 0.569801 -1.731873
2008-02-11 16:29:51 51°13.665 2°55.956 -999 0.096237 0.569641 -1.766697
2008-02-11 16:30:50 51°13.665 2°55.956 -999 0.09634 0.570127 -1.731873
2008-02-11 16:31:51 51°13.664 2°55.956 -999 0.09634 0.569991 -1.766697
2008-02-11 16:32:51 51°13.681 2°55.895 -999 0.09634 0.569881 -1.731873
2008-02-11 16:33:51 51°13.701 2°55.792 -999 0.096443 0.570268 -1.731873
2008-02-11 16:34:51 51°13.705 2°55.761 -999 0.096443 0.570145 -1.731873
2008-02-11 16:35:51 51°13.7 2°55.737 -999 0.096546 0.570667 -1.766697
2008-02-11 16:36:51 51°13.735 2°55.721 -999 0.096546 0.570581 -1.731873
2008-02-11 16:37:50 51°13.808 2°55.662 -999 0.096546 0.570507 -1.766697
2008-02-11 16:38:51 51°13.92 2°55.582 -999 0.096546 0.570372 -1.731873
2008-02-11 16:39:51 51°14.063 2°55.486 -999 0.096546 0.570224 -1.766697
2008-02-11 16:40:51 51°14.205 2°55.349 -999 0.096649 0.570709 -1.731873
2008-02-11 16:41:51 51°14.32 2°55.129 -999 0.096649 0.5705 -1.731873
2008-02-11 16:42:50 51°14.455 2°54.892 -999 0.096649 0.570353 -1.731873
2008-02-11 16:43:51 51°14.618 2°54.67 -999 0.096649 0.570156 -1.766697
2008-02-11 16:44:50 51°14.811 2°54.528 -999 0.096752 0.570653 -1.731873
2008-02-11 16:45:51 51°15.017 2°54.397 -999 0.096752 0.570518 -1.731873
2008-02-11 16:46:50 51°15.231 2°54.356 -999 0.096752 0.57037 -1.731873
2008-02-11 16:47:51 51°15.429 2°54.502 -999 0.096752 0.570346 -1.731873
2008-02-11 16:48:50 51°15.554 2°54.786 -999 0.096752 0.570125 -1.731873
2008-02-11 16:49:51 51°15.679 2°55.087 -999 0.096855 0.570756 -1.766697
2008-02-11 16:50:51 51°15.808 2°55.377 -999 0.096855 0.57056 -1.731873
2008-02-11 16:51:50 51°15.935 2°55.663 -999 0.096855 0.570413 -1.731873
2008-02-11 16:52:51 51°16.071 2°55.956 -999 0.096855 0.570303 -1.731873
2008-02-11 16:53:51 51°16.206 2°56.24 -999 0.096855 0.57018 -1.731873
2008-02-11 16:54:51 51°16.334 2°56.534 -999 0.096957 0.570688 -1.731873
2008-02-11 16:55:50 51°16.462 2°56.82 -999 0.096957 0.570627 -1.731873
2008-02-11 16:56:51 51°16.592 2°57.122 -999 0.096957 0.570553 -1.731873
2008-02-11 16:57:50 51°16.72 2°57.412 -999 0.096957 0.570443 -1.731873
2008-02-11 16:58:51 51°16.848 2°57.716 -999 0.096957 0.570357 -1.731873
2008-02-11 16:59:51 51°16.967 2°58.022 -999 0.096957 0.570272 -1.731873
2008-02-11 17:00:51 51°17.088 2°58.325 -999 0.096957 0.570162 -1.731873
2008-02-11 17:01:51 51°17.203 2°58.63 -999 0.09706 0.570706 -1.731873
2008-02-11 17:02:50 51°17.321 2°58.926 -999 0.09706 0.570608 -1.731873
2008-02-11 17:03:51 51°17.44 2°59.235 -999 0.09706 0.57051 -1.731873
2008-02-11 17:04:51 51°17.56 2°59.535 -999 0.09706 0.570412 -1.731873
2008-02-11 17:05:51 51°17.671 2°59.841 -999 0.09706 0.570327 -1.731873
2008-02-11 17:06:51 51°17.787 3°0.145 -999 0.09706 0.570217 -1.731873
2008-02-11 17:07:50 51°17.904 3°0.441 -999 0.09706 0.570107 -1.731873
2008-02-11 17:08:51 51°18.023 3°0.748 -999 0.097163 0.570626 -1.731873
2008-02-11 17:09:51 51°18.138 3°1.052 -999 0.097163 0.570516 -1.731873
2008-02-11 17:10:51 51°18.254 3°1.352 -999 0.097163 0.570418 -1.731873
2008-02-11 17:11:50 51°18.366 3°1.651 -999 0.097163 0.570321 -1.731873
2008-02-11 17:12:51 51°18.482 3°1.955 -999 0.097163 0.570211 -1.731873
2008-02-11 17:13:50 51°18.59 3°2.252 -999 0.097266 0.570742 -1.731873
2008-02-11 17:14:51 51°18.708 3°2.554 -999 0.097266 0.570644 -1.731873
2008-02-11 17:15:51 51°18.82 3°2.851 -999 0.097266 0.570534 -1.731873
2008-02-11 17:16:51 51°18.931 3°3.152 -999 0.097266 0.570437 -1.731873
2008-02-11 17:17:51 51°19.045 3°3.451 -999 0.097266 0.570351 -1.731873
2008-02-11 17:18:50 51°19.159 3°3.742 -999 0.097266 0.570266 -1.731873
2008-02-11 17:19:51 51°19.273 3°4.046 -999 0.097369 0.570797 -1.731873
2008-02-11 17:20:51 51°19.383 3°4.346 -999 0.097369 0.570699 -1.731873
2008-02-11 17:21:51 51°19.5 3°4.638 -999 0.097369 0.570614 -1.731873
2008-02-11 17:22:50 51°19.637 3°4.899 -999 0.097369 0.570492 -1.731873
2008-02-11 17:23:51 51°19.777 3°5.168 -999 0.097369 0.570394 -1.731873
2008-02-11 17:24:51 51°19.911 3°5.439 -999 0.097472 0.570924 -1.731873
2008-02-11 17:25:51 51°20.046 3°5.712 -999 0.097472 0.570803 -1.731873
2008-02-11 17:26:51 51°20.182 3°5.98 -999 0.097472 0.570693 -1.731873
2008-02-11 17:27:50 51°20.317 3°6.24 -999 0.097472 0.570608 -1.731873
2008-02-11 17:28:51 51°20.454 3°6.508 -999 0.097472 0.57051 -1.731873
2008-02-11 17:29:50 51°20.585 3°6.767 -999 0.097472 0.570401 -1.731873
2008-02-11 17:30:51 51°20.72 3°7.033 -999 0.097575 0.570942 -1.731873
2008-02-11 17:31:51 51°20.852 3°7.298 -999 0.097575 0.570833 -1.731873
2008-02-11 17:32:51 51°20.986 3°7.563 -999 0.097575 0.570723 -1.731873
2008-02-11 17:33:51 51°21.117 3°7.827 -999 0.097575 0.57065 -1.731873
2008-02-11 17:34:52 51°21.249 3°8.1 -999 0.097575 0.570553 -1.731873
2008-02-11 17:35:51 51°21.372 3°8.373 -999 0.097575 0.570456 -1.731873
2008-02-11 17:36:51 51°21.495 3°8.652 -999 0.097678 0.571009 -1.731873
2008-02-11 17:37:51 51°21.622 3°8.927 -999 0.097678 0.5709 -1.731873
2008-02-11 17:38:50 51°21.733 3°9.214 -999 0.097678 0.570815 -1.731873
2008-02-11 17:39:51 51°21.844 3°9.516 -999 0.097678 0.570705 -1.731873
2008-02-11 17:40:51 51°21.944 3°9.822 -999 0.097678 0.570633 -1.731873
2008-02-11 17:41:51 51°22.034 3°10.136 -999 0.097678 0.570523 -1.697049
2008-02-11 17:42:51 51°22.121 3°10.452 -999 0.097678 0.570426 -1.731873
2008-02-11 17:43:50 51°22.207 3°10.762 -999 0.097678 0.570341 -1.731873
2008-02-11 17:44:51 51°22.298 3°11.081 -999 0.097781 0.570858 -1.731873
2008-02-11 17:45:51 51°22.387 3°11.396 -999 0.097781 0.57076 -1.731873
2008-02-11 17:46:51 51°22.478 3°11.712 -999 0.097781 0.570663 -1.731873
2008-02-11 17:47:50 51°22.568 3°12.027 -999 0.097781 0.570566 -1.731873
2008-02-11 17:48:51 51°22.632 3°12.369 -999 0.097781 0.570469 -1.731873
2008-02-11 17:49:51 51°22.693 3°12.708 -999 0.097781 0.57036 -1.731873
2008-02-11 17:50:51 51°22.734 3°13.053 -999 0.097781 0.570275 -1.731873
2008-02-11 17:51:51 51°22.77 3°13.396 -999 0.097781 0.570166 -1.731873
2008-02-11 17:52:51 51°22.808 3°13.733 -999 0.097884 0.570682 -1.731873
2008-02-11 17:53:51 51°22.847 3°14.064 -999 0.097884 0.570597 -1.731873
2008-02-11 17:54:51 51°22.888 3°14.394 -999 0.097884 0.570525 -1.731873
2008-02-11 17:55:51 51°22.924 3°14.726 -999 0.097884 0.570428 -1.731873
2008-02-11 17:56:51 51°22.963 3°15.057 -999 0.097884 0.570307 -1.731873
2008-02-11 17:57:51 51°23.002 3°15.386 -999 0.097884 0.57021 -1.731873
2008-02-11 17:58:51 51°23.031 3°15.717 -999 0.097884 0.570125 -1.731873
2008-02-11 17:59:51 51°23.054 3°16.05 -999 0.097884 0.570041 -1.731873
2008-02-11 18:00:51 51°23.078 3°16.381 -999 0.097986 0.57058 -1.731873
2008-02-11 18:01:51 51°23.095 3°16.714 -999 0.097986 0.570507 -1.731873
2008-02-11 18:02:51 51°23.12 3°17.04 -999 0.097986 0.570411 -1.731873
2008-02-11 18:03:51 51°23.144 3°17.364 -999 0.097986 0.570326 -1.731873
2008-02-11 18:04:51 51°23.166 3°17.687 -999 0.097986 0.570254 -1.731873
2008-02-11 18:05:51 51°23.189 3°18.009 -999 0.097986 0.570157 -1.731873
2008-02-11 18:06:51 51°23.215 3°18.327 -999 0.097986 0.570084 -1.731873
2008-02-11 18:07:51 51°23.255 3°18.639 -999 0.097986 0.570024 -1.731873
2008-02-11 18:08:51 51°23.298 3°18.95 -999 0.098089 0.570551 -1.731873
2008-02-11 18:09:51 51°23.338 3°19.26 -999 0.098089 0.570478 -1.731873
2008-02-11 18:10:51 51°23.376 3°19.566 -999 0.098089 0.570406 -1.731873
2008-02-11 18:11:51 51°23.415 3°19.869 -999 0.098089 0.570321 -1.731873
2008-02-11 18:12:51 51°23.455 3°20.172 -999 0.098089 0.570237 -1.731873
2008-02-11 18:13:51 51°23.499 3°20.474 -999 0.098089 0.57014 -1.731873
2008-02-11 18:14:51 51°23.537 3°20.771 -999 0.098089 0.570044 -1.731873
2008-02-11 18:15:51 51°23.575 3°21.07 -999 0.098089 0.569971 -1.731873
2008-02-11 18:16:51 51°23.62 3°21.372 -999 0.098192 0.570498 -1.731873
2008-02-11 18:17:51 51°23.667 3°21.675 -999 0.098192 0.570413 -1.731873
2008-02-11 18:18:51 51°23.715 3°21.978 -999 0.098192 0.570317 -1.731873
2008-02-11 18:19:50 51°23.761 3°22.276 -999 0.098192 0.570244 -1.731873
2008-02-11 18:20:51 51°23.809 3°22.584 -999 0.098192 0.57016 -1.731873
2008-02-11 18:21:51 51°23.855 3°22.887 -999 0.098192 0.570088 -1.731873
2008-02-11 18:22:51 51°23.904 3°23.191 -999 0.098192 0.570003 -1.731873
2008-02-11 18:23:51 51°23.957 3°23.493 -999 0.098192 0.569931 -1.731873
2008-02-11 18:24:51 51°24.015 3°23.794 -999 0.098295 0.570481 -1.731873
2008-02-11 18:25:51 51°24.073 3°24.095 -999 0.098295 0.570384 -1.731873
2008-02-11 18:26:51 51°24.128 3°24.396 -999 0.098295 0.570312 -1.731873
2008-02-11 18:27:51 51°24.184 3°24.697 -999 0.098295 0.570228 -1.731873
2008-02-11 18:28:51 51°24.232 3°24.999 -999 0.098295 0.570132 -1.731873
2008-02-11 18:29:51 51°24.273 3°25.301 -999 0.098295 0.57006 -1.731873
2008-02-11 18:30:51 51°24.308 3°25.604 -999 0.098295 0.569975 -1.731873
2008-02-11 18:31:51 51°24.343 3°25.905 -999 0.098295 0.569903 -1.731873
2008-02-11 18:32:51 51°24.379 3°26.202 -999 0.098295 0.569831 -1.731873
2008-02-11 18:33:51 51°24.412 3°26.498 -999 0.098398 0.570368 -1.731873
2008-02-11 18:34:51 51°24.447 3°26.793 -999 0.098398 0.570284 -1.731873
2008-02-11 18:35:51 51°24.483 3°27.088 -999 0.098398 0.570188 -1.731873
2008-02-11 18:36:51 51°24.519 3°27.382 -999 0.098398 0.570128 -1.731873
2008-02-11 18:37:51 51°24.552 3°27.674 -999 0.098398 0.570044 -1.731873
2008-02-11 18:38:51 51°24.575 3°27.959 -999 0.098398 0.56996 -1.731873
2008-02-11 18:39:51 51°24.604 3°28.233 -999 0.098398 0.569888 -1.731873
2008-02-11 18:40:51 51°24.633 3°28.498 -999 0.098398 0.569816 -1.731873
2008-02-11 18:41:51 51°24.662 3°28.758 -999 0.098398 0.569756 -1.731873
2008-02-11 18:42:51 51°24.692 3°29.015 -999 0.098501 0.570316 -1.731873
2008-02-11 18:43:51 51°24.722 3°29.273 -999 0.098501 0.570232 -1.731873
2008-02-11 18:44:51 51°24.752 3°29.532 -999 0.098501 0.570184 -1.731873
2008-02-11 18:45:51 51°24.783 3°29.792 -999 0.098501 0.5701 -1.731873
2008-02-11 18:46:51 51°24.816 3°30.055 -999 0.098501 0.570028 -1.731873
2008-02-11 18:47:51 51°24.866 3°30.309 -999 0.098501 0.569908 -1.731873
2008-02-11 18:48:51 51°24.93 3°30.559 -999 0.098501 0.569848 -1.731873
2008-02-11 18:49:51 51°24.994 3°30.81 -999 0.098501 0.569776 -1.731873
2008-02-11 18:50:51 51°25.043 3°31.063 -999 0.098501 0.569728 -1.731873
2008-02-11 18:51:51 51°25.08 3°31.323 -999 0.098604 0.570264 -1.731873
2008-02-11 18:52:51 51°25.112 3°31.588 -999 0.098604 0.570192 -1.731873
2008-02-11 18:53:51 51°25.141 3°31.864 -999 0.098604 0.57012 -1.731873
2008-02-11 18:54:51 51°25.173 3°32.139 -999 0.098604 0.57006 -1.731873
2008-02-11 18:55:51 51°25.204 3°32.41 -999 0.098604 0.569988 -1.731873
2008-02-11 18:56:51 51°25.233 3°32.681 -999 0.098604 0.569928 -1.731873
2008-02-11 18:57:51 51°25.265 3°32.937 -999 0.098604 0.569845 -1.731873
2008-02-11 18:58:51 51°25.287 3°33.191 -999 0.098604 0.569773 -1.731873
2008-02-11 18:59:51 51°25.302 3°33.449 -999 0.098707 0.570332 -1.731873
2008-02-11 19:00:51 51°25.318 3°33.709 -999 0.098707 0.57026 -1.731873
2008-02-11 19:01:51 51°25.334 3°33.967 -999 0.098707 0.5702 -1.731873
2008-02-11 19:02:51 51°25.35 3°34.228 -999 0.098707 0.570128 -1.731873
2008-02-11 19:03:51 51°25.367 3°34.491 -999 0.098707 0.570057 -1.731873
2008-02-11 19:04:51 51°25.371 3°34.744 -999 0.098707 0.569997 -1.731873
2008-02-11 19:05:51 51°25.387 3°34.996 -999 0.098707 0.569937 -1.731873
2008-02-11 19:06:51 51°25.402 3°35.253 -999 0.098707 0.569865 -1.731873
2008-02-11 19:07:51 51°25.41 3°35.506 -999 0.098707 0.569805 -1.731873
2008-02-11 19:08:51 51°25.415 3°35.766 -999 0.09881 0.570364 -1.731873
2008-02-11 19:09:51 51°25.422 3°36.028 -999 0.09881 0.570304 -1.731873
2008-02-11 19:10:51 51°25.422 3°36.294 -999 0.09881 0.570233 -1.731873
2008-02-11 19:11:51 51°25.428 3°36.559 -999 0.09881 0.570161 -1.766697
2008-02-11 19:12:51 51°25.368 3°36.805 -999 0.09881 0.570101 -1.731873
2008-02-11 19:13:51 51°25.297 3°37.044 -999 0.09881 0.570017 -1.766697
2008-02-11 19:14:51 51°25.224 3°37.29 -999 0.09881 0.569934 -1.731873
2008-02-11 19:15:51 51°25.131 3°37.525 -999 0.09881 0.56991 -1.731873
2008-02-11 19:16:51 51°25.054 3°37.763 -999 0.09881 0.569814 -1.731873
2008-02-11 19:17:51 51°24.969 3°37.992 -999 0.09881 0.569779 -1.731873
2008-02-11 19:18:51 51°24.889 3°38.222 -999 0.098913 0.570349 -1.731873
2008-02-11 19:19:51 51°24.823 3°38.457 -999 0.098913 0.570313 -1.731873
2008-02-11 19:20:51 51°24.771 3°38.706 -999 0.098913 0.570229 -1.731873
2008-02-11 19:21:51 51°24.749 3°38.894 -999 0.098913 0.570169 -1.731873
2008-02-11 19:22:51 51°24.747 3°39.131 -999 0.098913 0.57011 -1.766697
2008-02-11 19:23:51 51°24.747 3°39.393 -999 0.098913 0.570074 -1.731873
2008-02-11 19:24:51 51°24.732 3°39.651 -999 0.098913 0.56999 -1.731873
2008-02-11 19:25:51 51°24.711 3°39.902 -999 0.098913 0.569943 -1.731873
2008-02-11 19:26:51 51°24.656 3°40.136 -999 0.098913 0.569883 -1.731873
2008-02-11 19:27:51 51°24.586 3°40.36 -999 0.098913 0.5698 -1.731873
2008-02-11 19:28:51 51°24.523 3°40.592 -999 0.099015 0.570369 -1.731873
2008-02-11 19:29:51 51°24.43 3°40.794 -999 0.099015 0.570309 -1.731873
2008-02-11 19:30:51 51°24.347 3°41.003 -999 0.099015 0.570226 -1.731873
2008-02-11 19:31:51 51°24.268 3°41.217 -999 0.099015 0.570178 -1.731873
2008-02-11 19:32:51 51°24.188 3°41.43 -999 0.099015 0.570095 -1.731873
2008-02-11 19:33:51 51°24.092 3°41.63 -999 0.099015 0.570047 -1.731873
2008-02-11 19:34:51 51°23.981 3°41.807 -999 0.099015 0.569987 -1.731873
2008-02-11 19:35:51 51°23.86 3°41.972 -999 0.099015 0.56994 -1.731873
2008-02-11 19:36:51 51°23.731 3°42.128 -999 0.099015 0.569892 -1.731873
2008-02-11 19:37:51 51°23.596 3°42.27 -999 0.099015 0.569821 -1.731873
2008-02-11 19:38:51 51°23.461 3°42.407 -999 0.099015 0.569761 -1.731873
2008-02-11 19:39:51 51°23.328 3°42.541 -999 0.099015 0.569713 -1.766697
2008-02-11 19:40:51 51°23.201 3°42.689 -999 0.099118 0.570282 -1.731873
2008-02-11 19:41:51 51°23.081 3°42.851 -999 0.099118 0.570223 -1.731873
2008-02-11 19:42:51 51°22.96 3°43.01 -999 0.099118 0.570175 -1.766697
2008-02-11 19:43:51 51°22.839 3°43.17 -999 0.099118 0.570139 -1.731873
2008-02-11 19:44:51 51°22.722 3°43.336 -999 0.099118 0.57008 -1.731873
2008-02-11 19:45:51 51°22.61 3°43.508 -999 0.099118 0.570032 -1.731873
2008-02-11 19:46:51 51°22.499 3°43.683 -999 0.099118 0.569973 -1.766697
2008-02-11 19:47:51 51°22.388 3°43.856 -999 0.099118 0.569925 -1.731873
2008-02-11 19:48:51 51°22.283 3°44.038 -999 0.099118 0.569877 -1.766697
2008-02-11 19:49:51 51°22.178 3°44.222 -999 0.099118 0.56983 -1.731873
2008-02-11 19:50:51 51°22.071 3°44.405 -999 0.099118 0.569782 -1.766697
2008-02-11 19:51:51 51°21.975 3°44.599 -999 0.099118 0.569723 -1.731873
2008-02-11 19:52:51 51°21.876 3°44.796 -999 0.099118 0.569675 -1.731873
2008-02-11 19:53:51 51°21.781 3°44.996 -999 0.099118 0.569616 -1.731873
2008-02-11 19:54:51 51°21.691 3°45.201 -999 0.099118 0.569568 -1.766697
2008-02-11 19:55:51 51°21.612 3°45.417 -999 0.099118 0.569521 -1.731873
2008-02-11 19:56:51 51°21.53 3°45.634 -999 0.099118 0.569473 -1.731873
2008-02-11 19:57:51 51°21.459 3°45.857 -999 0.099118 0.569426 -1.731873
2008-02-11 19:58:51 51°21.399 3°46.085 -999 0.099118 0.569366 -1.766697
2008-02-11 19:59:51 51°21.339 3°46.314 -999 0.099221 0.569934 -1.766697
2008-02-11 20:00:51 51°21.282 3°46.543 -999 0.099221 0.569887 -1.731873
2008-02-11 20:01:51 51°21.231 3°46.774 -999 0.099221 0.569839 -1.731873
2008-02-11 20:02:51 51°21.188 3°47.007 -999 0.099221 0.56978 -1.766697
2008-02-11 20:03:51 51°21.147 3°47.237 -999 0.099221 0.569732 -1.766697
2008-02-11 20:04:51 51°21.101 3°47.466 -999 0.099221 0.569685 -1.766697
2008-02-11 20:05:51 51°21.044 3°47.689 -999 0.099221 0.569625 -1.731873
2008-02-11 20:06:51 51°20.981 3°47.911 -999 0.099221 0.56959 -1.766697
2008-02-11 20:07:51 51°20.919 3°48.137 -999 0.099221 0.569542 -1.766697
2008-02-11 20:08:51 51°20.858 3°48.363 -999 0.099221 0.569495 -1.731873
2008-02-11 20:09:51 51°20.792 3°48.588 -999 0.099221 0.569471 -1.766697
2008-02-11 20:10:51 51°20.737 3°48.819 -999 0.099221 0.569376 -1.766697
2008-02-11 20:11:51 51°20.698 3°49.06 -999 0.099221 0.569353 -1.766697
2008-02-11 20:12:51 51°20.679 3°49.315 -999 0.099221 0.569305 -1.731873
2008-02-11 20:13:51 51°20.666 3°49.569 -999 0.099324 0.569872 -1.731873
2008-02-11 20:14:51 51°20.678 3°49.81 -999 0.099324 0.569825 -1.766697
2008-02-11 20:15:51 51°20.693 3°50.053 -999 0.099324 0.569766 -1.731873
2008-02-11 20:16:51 51°20.705 3°50.296 -999 0.099324 0.56973 -1.731873
2008-02-11 20:17:51 51°20.719 3°50.532 -999 0.099324 0.569671 -1.731873
2008-02-11 20:18:51 51°20.725 3°50.764 -999 0.099324 0.569647 -1.766697
2008-02-11 20:19:51 51°20.737 3°50.996 -999 0.099324 0.5696 -1.731873
2008-02-11 20:20:51 51°20.758 3°51.222 -999 0.099324 0.569564 -1.731873
2008-02-11 20:21:51 51°20.789 3°51.42 -999 0.099324 0.569505 -1.731873
2008-02-11 20:22:51 51°20.831 3°51.611 -999 0.099324 0.569469 -1.766697
2008-02-11 20:23:51 51°20.872 3°51.818 -999 0.099324 0.569446 -1.731873
2008-02-11 20:24:51 51°20.928 3°52.022 -999 0.099324 0.569386 -1.766697
2008-02-11 20:25:51 51°20.98 3°52.228 -999 0.099324 0.569351 -1.731873
2008-02-11 20:26:51 51°21.027 3°52.438 -999 0.099324 0.569303 -1.731873
2008-02-11 20:27:51 51°21.072 3°52.65 -999 0.099324 0.569244 -1.766697
2008-02-11 20:28:51 51°21.117 3°52.859 -999 0.099324 0.569209 -1.731873
2008-02-11 20:29:51 51°21.176 3°53.064 -999 0.099324 0.56915 -1.766697
2008-02-11 20:30:51 51°21.241 3°53.265 -999 0.099427 0.569728 -1.766697